KTYS/TYS METAR and TAF weather

Enter ICAO airport designator
Station Type Date Time Source
KTYS METAR 2019/06/26 17:53 UTC NOAA

KTYS 261753Z VRB03KT 10SM FEW039 FEW170 BKN250 29/18 A3017 RMK AO2 SLP206 T02890178 10289 20200 58010


Station Type Date Time Source
KTYS Decoded METAR 2019/06/26 17:53 UTC NOAA

MCGHEE TYSON AIRPORT, TN, United States (KTYS) 35-49N 083-59W 302M
Jun 26, 2019 - 01:53 PM EDT / 2019.06.26 1753 UTC
Wind: Variable at 3 MPH (3 KT):0
Visibility: 10 mile(s):0
Sky conditions: mostly cloudy
Temperature: 84.0 F (28.9 C)
Dew Point: 64.0 F (17.8 C)
Relative Humidity: 51%
Pressure (altimeter): 30.17 in. Hg (1021 hPa)
Pressure tendency: 0.03 inches (1.0 hPa) lower than three hours ago
ob: KTYS 261753Z VRB03KT 10SM FEW039 FEW170 BKN250 29/18 A3017 RMK AO2 SLP206 T02890178 10289 20200 58010
cycle: 18

Station Type Date Time Source
KTYS TAF 2019/06/26 18:30 UTC NOAA

TAF KTYS 261728Z 2618/2718 VRB04KT P6SM FEW035 BKN250
FM270000 VRB02KT P6SM SCT250

Example: see airport list